sensor_id;sensor_type;location;lat;lon;timestamp;P1;durP1;ratioP1;P2;durP2;ratioP2
1366;SDS011;16877;48.810;9.282;2023-07-29T00:02:22;3.27;;;1.83;;
1366;SDS011;16877;48.810;9.282;2023-07-29T00:05:04;2.30;;;1.17;;
1366;SDS011;16877;48.810;9.282;2023-07-29T00:07:33;2.50;;;1.40;;
1366;SDS011;16877;48.810;9.282;2023-07-29T00:10:15;2.57;;;1.20;;
1366;SDS011;16877;48.810;9.282;2023-07-29T00:12:59;4.10;;;1.70;;
1366;SDS011;16877;48.810;9.282;2023-07-29T00:15:30;3.00;;;1.60;;
1366;SDS011;16877;48.810;9.282;2023-07-29T00:18:12;2.37;;;1.47;;
1366;SDS011;16877;48.810;9.282;2023-07-29T00:20:55;2.83;;;1.60;;
1366;SDS011;16877;48.810;9.282;2023-07-29T00:23:25;2.50;;;1.53;;
1366;SDS011;16877;48.810;9.282;2023-07-29T00:26:07;2.30;;;1.03;;
1366;SDS011;16877;48.810;9.282;2023-07-29T00:28:52;2.70;;;1.50;;
1366;SDS011;16877;48.810;9.282;2023-07-29T00:31:20;2.80;;;1.67;;
1366;SDS011;16877;48.810;9.282;2023-07-29T00:33:50;3.27;;;1.40;;
1366;SDS011;16877;48.810;9.282;2023-07-29T00:36:22;2.83;;;1.80;;
1366;SDS011;16877;48.810;9.282;2023-07-29T00:38:56;2.30;;;1.50;;
1366;SDS011;16877;48.810;9.282;2023-07-29T00:41:38;3.40;;;1.40;;
1366;SDS011;16877;48.810;9.282;2023-07-29T00:44:10;2.80;;;1.53;;
1366;SDS011;16877;48.810;9.282;2023-07-29T00:46:38;2.23;;;1.07;;
1366;SDS011;16877;48.810;9.282;2023-07-29T00:49:22;2.70;;;1.80;;
1366;SDS011;16877;48.810;9.282;2023-07-29T00:51:51;2.30;;;1.40;;
1366;SDS011;16877;48.810;9.282;2023-07-29T00:54:34;2.27;;;1.43;;
1366;SDS011;16877;48.810;9.282;2023-07-29T00:57:16;2.90;;;1.50;;
1366;SDS011;16877;48.810;9.282;2023-07-29T01:00:02;2.37;;;1.30;;
1366;SDS011;16877;48.810;9.282;2023-07-29T01:02:31;2.00;;;1.17;;
1366;SDS011;16877;48.810;9.282;2023-07-29T01:05:01;3.13;;;1.60;;
1366;SDS011;16877;48.810;9.282;2023-07-29T01:07:30;2.67;;;1.67;;
1366;SDS011;16877;48.810;9.282;2023-07-29T01:10:19;3.77;;;1.67;;
1366;SDS011;16877;48.810;9.282;2023-07-29T01:13:00;2.90;;;1.33;;
1366;SDS011;16877;48.810;9.282;2023-07-29T01:15:50;2.30;;;1.20;;
1366;SDS011;16877;48.810;9.282;2023-07-29T01:18:36;2.10;;;1.30;;
1366;SDS011;16877;48.810;9.282;2023-07-29T01:21:21;2.13;;;1.23;;
1366;SDS011;16877;48.810;9.282;2023-07-29T01:24:07;2.60;;;1.17;;
1366;SDS011;16877;48.810;9.282;2023-07-29T01:26:45;2.03;;;0.93;;
1366;SDS011;16877;48.810;9.282;2023-07-29T01:29:27;2.80;;;1.37;;
1366;SDS011;16877;48.810;9.282;2023-07-29T01:31:56;2.50;;;1.37;;
1366;SDS011;16877;48.810;9.282;2023-07-29T01:34:29;2.30;;;1.23;;
1366;SDS011;16877;48.810;9.282;2023-07-29T01:37:17;2.00;;;1.20;;
1366;SDS011;16877;48.810;9.282;2023-07-29T01:39:51;4.13;;;1.07;;
1366;SDS011;16877;48.810;9.282;2023-07-29T01:42:38;2.17;;;1.20;;
1366;SDS011;16877;48.810;9.282;2023-07-29T01:45:22;2.40;;;1.30;;
1366;SDS011;16877;48.810;9.282;2023-07-29T01:47:50;2.00;;;0.93;;
1366;SDS011;16877;48.810;9.282;2023-07-29T01:50:33;2.20;;;1.10;;
1366;SDS011;16877;48.810;9.282;2023-07-29T01:53:16;4.17;;;1.50;;
1366;SDS011;16877;48.810;9.282;2023-07-29T01:56:00;2.03;;;1.00;;
1366;SDS011;16877;48.810;9.282;2023-07-29T01:58:43;2.43;;;1.03;;
1366;SDS011;16877;48.810;9.282;2023-07-29T02:01:26;1.90;;;1.00;;
1366;SDS011;16877;48.810;9.282;2023-07-29T02:04:08;4.50;;;1.07;;
1366;SDS011;16877;48.810;9.282;2023-07-29T02:06:51;2.10;;;0.90;;
1366;SDS011;16877;48.810;9.282;2023-07-29T02:09:33;2.03;;;1.20;;
1366;SDS011;16877;48.810;9.282;2023-07-29T02:12:17;2.57;;;1.27;;
1366;SDS011;16877;48.810;9.282;2023-07-29T02:14:59;2.23;;;1.37;;
1366;SDS011;16877;48.810;9.282;2023-07-29T02:17:41;2.77;;;1.20;;
1366;SDS011;16877;48.810;9.282;2023-07-29T02:20:24;4.10;;;1.63;;
1366;SDS011;16877;48.810;9.282;2023-07-29T02:22:51;2.07;;;1.03;;
1366;SDS011;16877;48.810;9.282;2023-07-29T02:25:19;2.00;;;1.00;;
1366;SDS011;16877;48.810;9.282;2023-07-29T02:28:03;2.77;;;1.00;;
1366;SDS011;16877;48.810;9.282;2023-07-29T02:30:46;2.40;;;1.23;;
1366;SDS011;16877;48.810;9.282;2023-07-29T02:33:28;2.10;;;1.00;;
1366;SDS011;16877;48.810;9.282;2023-07-29T02:36:11;4.43;;;0.80;;
1366;SDS011;16877;48.810;9.282;2023-07-29T02:38:39;3.07;;;0.90;;
1366;SDS011;16877;48.810;9.282;2023-07-29T02:41:22;1.90;;;1.00;;
1366;SDS011;16877;48.810;9.282;2023-07-29T02:44:07;4.13;;;1.40;;
1366;SDS011;16877;48.810;9.282;2023-07-29T02:46:51;2.17;;;1.10;;
1366;SDS011;16877;48.810;9.282;2023-07-29T02:49:33;2.33;;;1.43;;
1366;SDS011;16877;48.810;9.282;2023-07-29T02:52:16;4.00;;;1.57;;
1366;SDS011;16877;48.810;9.282;2023-07-29T02:54:58;2.00;;;1.00;;
1366;SDS011;16877;48.810;9.282;2023-07-29T02:57:41;3.00;;;1.13;;
1366;SDS011;16877;48.810;9.282;2023-07-29T03:00:25;2.33;;;1.20;;
1366;SDS011;16877;48.810;9.282;2023-07-29T03:02:55;3.10;;;1.10;;
1366;SDS011;16877;48.810;9.282;2023-07-29T03:05:22;2.23;;;1.40;;
1366;SDS011;16877;48.810;9.282;2023-07-29T03:08:04;2.07;;;1.00;;
1366;SDS011;16877;48.810;9.282;2023-07-29T03:10:34;2.43;;;1.20;;
1366;SDS011;16877;48.810;9.282;2023-07-29T03:13:17;2.00;;;1.00;;
1366;SDS011;16877;48.810;9.282;2023-07-29T03:16:06;2.37;;;1.43;;
1366;SDS011;16877;48.810;9.282;2023-07-29T03:18:35;2.87;;;1.33;;
1366;SDS011;16877;48.810;9.282;2023-07-29T03:21:18;1.87;;;0.97;;
1366;SDS011;16877;48.810;9.282;2023-07-29T03:24:01;2.30;;;1.00;;
1366;SDS011;16877;48.810;9.282;2023-07-29T03:26:29;3.03;;;1.20;;
1366;SDS011;16877;48.810;9.282;2023-07-29T03:29:11;2.43;;;1.30;;
1366;SDS011;16877;48.810;9.282;2023-07-29T03:31:55;2.60;;;1.23;;
1366;SDS011;16877;48.810;9.282;2023-07-29T03:34:38;2.20;;;1.10;;
1366;SDS011;16877;48.810;9.282;2023-07-29T03:37:20;3.10;;;1.27;;
1366;SDS011;16877;48.810;9.282;2023-07-29T03:40:03;3.07;;;1.50;;
1366;SDS011;16877;48.810;9.282;2023-07-29T03:42:32;2.10;;;1.20;;
1366;SDS011;16877;48.810;9.282;2023-07-29T03:45:14;2.50;;;1.33;;
1366;SDS011;16877;48.810;9.282;2023-07-29T03:47:45;2.53;;;1.40;;
1366;SDS011;16877;48.810;9.282;2023-07-29T03:50:27;2.27;;;1.30;;
1366;SDS011;16877;48.810;9.282;2023-07-29T03:52:56;2.30;;;1.70;;
1366;SDS011;16877;48.810;9.282;2023-07-29T03:55:39;2.53;;;1.50;;
1366;SDS011;16877;48.810;9.282;2023-07-29T03:58:12;2.33;;;1.30;;
1366;SDS011;16877;48.810;9.282;2023-07-29T04:00:54;2.43;;;1.30;;
1366;SDS011;16877;48.810;9.282;2023-07-29T04:03:38;2.47;;;1.30;;
1366;SDS011;16877;48.810;9.282;2023-07-29T04:06:21;1.93;;;1.20;;
1366;SDS011;16877;48.810;9.282;2023-07-29T04:09:03;2.90;;;1.20;;
1366;SDS011;16877;48.810;9.282;2023-07-29T04:11:45;2.60;;;1.20;;
1366;SDS011;16877;48.810;9.282;2023-07-29T04:14:28;2.80;;;1.77;;
1366;SDS011;16877;48.810;9.282;2023-07-29T04:17:10;2.97;;;1.90;;
1366;SDS011;16877;48.810;9.282;2023-07-29T04:19:41;2.70;;;1.20;;
1366;SDS011;16877;48.810;9.282;2023-07-29T04:22:18;2.90;;;1.50;;
1366;SDS011;16877;48.810;9.282;2023-07-29T04:24:47;2.93;;;1.77;;
1366;SDS011;16877;48.810;9.282;2023-07-29T04:27:16;3.50;;;1.43;;
1366;SDS011;16877;48.810;9.282;2023-07-29T04:29:52;2.73;;;1.50;;
1366;SDS011;16877;48.810;9.282;2023-07-29T04:32:34;3.80;;;1.77;;
1366;SDS011;16877;48.810;9.282;2023-07-29T04:35:18;3.37;;;1.80;;
1366;SDS011;16877;48.810;9.282;2023-07-29T04:38:00;3.00;;;1.20;;
1366;SDS011;16877;48.810;9.282;2023-07-29T04:40:46;2.77;;;1.50;;
1366;SDS011;16877;48.810;9.282;2023-07-29T04:43:31;2.67;;;1.30;;
1366;SDS011;16877;48.810;9.282;2023-07-29T04:46:13;2.30;;;1.60;;
1366;SDS011;16877;48.810;9.282;2023-07-29T04:48:42;2.67;;;1.60;;
1366;SDS011;16877;48.810;9.282;2023-07-29T04:51:11;2.50;;;1.43;;
1366;SDS011;16877;48.810;9.282;2023-07-29T04:53:39;3.20;;;1.43;;
1366;SDS011;16877;48.810;9.282;2023-07-29T04:56:06;3.20;;;2.10;;
1366;SDS011;16877;48.810;9.282;2023-07-29T04:58:34;3.73;;;2.07;;
1366;SDS011;16877;48.810;9.282;2023-07-29T05:01:01;5.77;;;1.70;;
1366;SDS011;16877;48.810;9.282;2023-07-29T05:03:29;3.60;;;2.43;;
1366;SDS011;16877;48.810;9.282;2023-07-29T05:05:57;2.70;;;1.80;;
1366;SDS011;16877;48.810;9.282;2023-07-29T05:08:34;2.43;;;1.47;;
1366;SDS011;16877;48.810;9.282;2023-07-29T05:11:03;3.63;;;1.70;;
1366;SDS011;16877;48.810;9.282;2023-07-29T05:13:45;3.53;;;1.80;;
1366;SDS011;16877;48.810;9.282;2023-07-29T05:16:13;4.33;;;2.40;;
1366;SDS011;16877;48.810;9.282;2023-07-29T05:18:40;2.70;;;1.70;;
1366;SDS011;16877;48.810;9.282;2023-07-29T05:21:12;5.13;;;1.80;;
1366;SDS011;16877;48.810;9.282;2023-07-29T05:23:41;3.80;;;2.33;;
1366;SDS011;16877;48.810;9.282;2023-07-29T05:26:08;2.73;;;1.90;;
1366;SDS011;16877;48.810;9.282;2023-07-29T05:28:36;3.40;;;1.70;;
1366;SDS011;16877;48.810;9.282;2023-07-29T05:31:03;6.27;;;1.87;;
1366;SDS011;16877;48.810;9.282;2023-07-29T05:33:31;2.93;;;2.00;;
1366;SDS011;16877;48.810;9.282;2023-07-29T05:35:58;3.60;;;1.90;;
1366;SDS011;16877;48.810;9.282;2023-07-29T05:38:25;2.80;;;1.83;;
1366;SDS011;16877;48.810;9.282;2023-07-29T05:40:55;3.27;;;2.23;;
1366;SDS011;16877;48.810;9.282;2023-07-29T05:43:23;4.10;;;2.17;;
1366;SDS011;16877;48.810;9.282;2023-07-29T05:45:50;3.07;;;2.20;;
1366;SDS011;16877;48.810;9.282;2023-07-29T05:48:28;3.50;;;2.10;;
1366;SDS011;16877;48.810;9.282;2023-07-29T05:50:58;3.40;;;2.07;;
1366;SDS011;16877;48.810;9.282;2023-07-29T05:53:41;3.37;;;2.53;;
1366;SDS011;16877;48.810;9.282;2023-07-29T05:56:10;3.90;;;2.23;;
1366;SDS011;16877;48.810;9.282;2023-07-29T05:58:52;3.00;;;2.13;;
1366;SDS011;16877;48.810;9.282;2023-07-29T06:01:19;3.07;;;1.93;;
1366;SDS011;16877;48.810;9.282;2023-07-29T06:03:47;3.00;;;2.00;;
1366;SDS011;16877;48.810;9.282;2023-07-29T06:06:16;3.13;;;1.80;;
1366;SDS011;16877;48.810;9.282;2023-07-29T06:08:44;3.60;;;2.30;;
1366;SDS011;16877;48.810;9.282;2023-07-29T06:11:13;2.60;;;1.60;;
1366;SDS011;16877;48.810;9.282;2023-07-29T06:13:41;4.53;;;1.67;;
1366;SDS011;16877;48.810;9.282;2023-07-29T06:16:15;2.43;;;1.47;;
1366;SDS011;16877;48.810;9.282;2023-07-29T06:19:02;4.03;;;1.67;;
1366;SDS011;16877;48.810;9.282;2023-07-29T06:21:30;2.70;;;1.83;;
1366;SDS011;16877;48.810;9.282;2023-07-29T06:23:57;2.63;;;1.70;;
1366;SDS011;16877;48.810;9.282;2023-07-29T06:26:26;2.30;;;1.23;;
1366;SDS011;16877;48.810;9.282;2023-07-29T06:28:59;4.53;;;1.80;;
1366;SDS011;16877;48.810;9.282;2023-07-29T06:31:27;2.50;;;1.30;;
1366;SDS011;16877;48.810;9.282;2023-07-29T06:33:57;2.30;;;1.30;;
1366;SDS011;16877;48.810;9.282;2023-07-29T06:36:31;3.40;;;1.77;;
1366;SDS011;16877;48.810;9.282;2023-07-29T06:38:59;3.67;;;1.67;;
1366;SDS011;16877;48.810;9.282;2023-07-29T06:41:36;2.67;;;1.63;;
1366;SDS011;16877;48.810;9.282;2023-07-29T06:44:04;3.63;;;1.93;;
1366;SDS011;16877;48.810;9.282;2023-07-29T06:46:32;2.50;;;1.60;;
1366;SDS011;16877;48.810;9.282;2023-07-29T06:49:00;3.90;;;1.80;;
1366;SDS011;16877;48.810;9.282;2023-07-29T06:51:28;4.30;;;1.83;;
1366;SDS011;16877;48.810;9.282;2023-07-29T06:53:59;4.60;;;1.70;;
1366;SDS011;16877;48.810;9.282;2023-07-29T06:56:26;3.00;;;1.93;;
1366;SDS011;16877;48.810;9.282;2023-07-29T06:58:55;3.50;;;2.10;;
1366;SDS011;16877;48.810;9.282;2023-07-29T07:01:23;3.90;;;1.90;;
1366;SDS011;16877;48.810;9.282;2023-07-29T07:03:50;3.03;;;1.90;;
1366;SDS011;16877;48.810;9.282;2023-07-29T07:06:19;4.50;;;2.33;;
1366;SDS011;16877;48.810;9.282;2023-07-29T07:08:47;3.23;;;2.20;;
1366;SDS011;16877;48.810;9.282;2023-07-29T07:11:14;5.07;;;2.17;;
1366;SDS011;16877;48.810;9.282;2023-07-29T07:13:42;4.20;;;2.07;;
1366;SDS011;16877;48.810;9.282;2023-07-29T07:16:11;6.67;;;2.67;;
1366;SDS011;16877;48.810;9.282;2023-07-29T07:18:49;2.87;;;1.97;;
1366;SDS011;16877;48.810;9.282;2023-07-29T07:21:16;5.93;;;2.40;;
1366;SDS011;16877;48.810;9.282;2023-07-29T07:23:58;4.33;;;2.17;;
1366;SDS011;16877;48.810;9.282;2023-07-29T07:26:27;2.70;;;1.43;;
1366;SDS011;16877;48.810;9.282;2023-07-29T07:28:57;2.93;;;2.07;;
1366;SDS011;16877;48.810;9.282;2023-07-29T07:31:27;3.40;;;2.03;;
1366;SDS011;16877;48.810;9.282;2023-07-29T07:33:55;2.80;;;2.07;;
1366;SDS011;16877;48.810;9.282;2023-07-29T07:36:23;3.67;;;1.80;;
1366;SDS011;16877;48.810;9.282;2023-07-29T07:38:50;4.83;;;2.07;;
1366;SDS011;16877;48.810;9.282;2023-07-29T07:41:19;3.17;;;2.17;;
1366;SDS011;16877;48.810;9.282;2023-07-29T07:43:47;2.57;;;1.60;;
1366;SDS011;16877;48.810;9.282;2023-07-29T07:46:15;3.27;;;1.60;;
1366;SDS011;16877;48.810;9.282;2023-07-29T07:48:45;2.50;;;1.87;;
1366;SDS011;16877;48.810;9.282;2023-07-29T07:51:27;3.80;;;2.30;;
1366;SDS011;16877;48.810;9.282;2023-07-29T07:53:55;2.83;;;1.53;;
1366;SDS011;16877;48.810;9.282;2023-07-29T07:56:33;4.37;;;1.80;;
1366;SDS011;16877;48.810;9.282;2023-07-29T07:59:10;2.70;;;1.53;;
1366;SDS011;16877;48.810;9.282;2023-07-29T08:01:48;2.60;;;1.50;;
1366;SDS011;16877;48.810;9.282;2023-07-29T08:04:32;3.13;;;1.70;;
1366;SDS011;16877;48.810;9.282;2023-07-29T08:06:59;2.80;;;2.10;;
1366;SDS011;16877;48.810;9.282;2023-07-29T08:09:27;3.47;;;2.10;;
1366;SDS011;16877;48.810;9.282;2023-07-29T08:11:54;4.20;;;2.10;;
1366;SDS011;16877;48.810;9.282;2023-07-29T08:14:26;4.10;;;2.10;;
1366;SDS011;16877;48.810;9.282;2023-07-29T08:16:53;2.73;;;1.60;;
1366;SDS011;16877;48.810;9.282;2023-07-29T08:19:21;3.63;;;2.07;;
1366;SDS011;16877;48.810;9.282;2023-07-29T08:21:50;2.73;;;1.63;;
1366;SDS011;16877;48.810;9.282;2023-07-29T08:24:17;3.20;;;1.77;;
1366;SDS011;16877;48.810;9.282;2023-07-29T08:26:44;2.30;;;1.27;;
1366;SDS011;16877;48.810;9.282;2023-07-29T08:29:27;2.93;;;1.40;;
1366;SDS011;16877;48.810;9.282;2023-07-29T08:31:59;3.07;;;1.20;;
1366;SDS011;16877;48.810;9.282;2023-07-29T08:34:26;2.70;;;1.43;;
1366;SDS011;16877;48.810;9.282;2023-07-29T08:36:55;4.03;;;1.67;;
1366;SDS011;16877;48.810;9.282;2023-07-29T08:39:23;3.30;;;1.77;;
1366;SDS011;16877;48.810;9.282;2023-07-29T08:41:54;5.20;;;1.70;;
1366;SDS011;16877;48.810;9.282;2023-07-29T08:44:30;2.30;;;1.30;;
1366;SDS011;16877;48.810;9.282;2023-07-29T08:47:02;2.67;;;1.50;;
1366;SDS011;16877;48.810;9.282;2023-07-29T08:49:30;3.63;;;1.43;;
1366;SDS011;16877;48.810;9.282;2023-07-29T08:52:00;2.70;;;1.47;;
1366;SDS011;16877;48.810;9.282;2023-07-29T08:54:28;2.53;;;1.30;;
1366;SDS011;16877;48.810;9.282;2023-07-29T08:56:56;2.13;;;1.27;;
1366;SDS011;16877;48.810;9.282;2023-07-29T08:59:24;2.67;;;1.40;;
1366;SDS011;16877;48.810;9.282;2023-07-29T09:01:53;4.00;;;2.00;;
1366;SDS011;16877;48.810;9.282;2023-07-29T09:04:22;2.43;;;1.43;;
1366;SDS011;16877;48.810;9.282;2023-07-29T09:06:50;5.40;;;1.43;;
1366;SDS011;16877;48.810;9.282;2023-07-29T09:09:20;2.40;;;1.23;;
1366;SDS011;16877;48.810;9.282;2023-07-29T09:11:48;2.30;;;1.47;;
1366;SDS011;16877;48.810;9.282;2023-07-29T09:14:15;3.20;;;1.67;;
1366;SDS011;16877;48.810;9.282;2023-07-29T09:16:44;2.80;;;1.27;;
1366;SDS011;16877;48.810;9.282;2023-07-29T09:19:12;2.70;;;1.67;;
1366;SDS011;16877;48.810;9.282;2023-07-29T09:21:40;5.53;;;2.10;;
1366;SDS011;16877;48.810;9.282;2023-07-29T09:24:08;3.73;;;2.20;;
1366;SDS011;16877;48.810;9.282;2023-07-29T09:26:39;3.73;;;1.70;;
1366;SDS011;16877;48.810;9.282;2023-07-29T09:29:21;2.60;;;1.60;;
1366;SDS011;16877;48.810;9.282;2023-07-29T09:31:49;2.70;;;1.50;;
1366;SDS011;16877;48.810;9.282;2023-07-29T09:34:17;3.30;;;1.80;;
1366;SDS011;16877;48.810;9.282;2023-07-29T09:36:45;2.93;;;1.70;;
1366;SDS011;16877;48.810;9.282;2023-07-29T09:39:12;2.50;;;1.57;;
1366;SDS011;16877;48.810;9.282;2023-07-29T09:41:41;2.97;;;1.70;;
1366;SDS011;16877;48.810;9.282;2023-07-29T09:44:14;2.80;;;1.90;;
1366;SDS011;16877;48.810;9.282;2023-07-29T09:46:45;3.50;;;1.50;;
1366;SDS011;16877;48.810;9.282;2023-07-29T09:49:13;3.63;;;1.70;;
1366;SDS011;16877;48.810;9.282;2023-07-29T09:51:40;3.43;;;1.87;;
1366;SDS011;16877;48.810;9.282;2023-07-29T09:54:10;2.97;;;1.80;;
1366;SDS011;16877;48.810;9.282;2023-07-29T09:56:42;2.80;;;1.80;;
1366;SDS011;16877;48.810;9.282;2023-07-29T09:59:11;3.57;;;1.97;;
1366;SDS011;16877;48.810;9.282;2023-07-29T10:01:38;2.43;;;1.40;;
1366;SDS011;16877;48.810;9.282;2023-07-29T10:04:06;2.73;;;1.57;;
1366;SDS011;16877;48.810;9.282;2023-07-29T10:06:35;2.83;;;1.67;;
1366;SDS011;16877;48.810;9.282;2023-07-29T10:09:04;3.47;;;1.73;;
1366;SDS011;16877;48.810;9.282;2023-07-29T10:11:44;2.97;;;1.70;;
1366;SDS011;16877;48.810;9.282;2023-07-29T10:14:13;2.73;;;1.80;;
1366;SDS011;16877;48.810;9.282;2023-07-29T10:16:41;3.37;;;2.00;;
1366;SDS011;16877;48.810;9.282;2023-07-29T10:19:11;2.53;;;1.57;;
1366;SDS011;16877;48.810;9.282;2023-07-29T10:21:39;3.20;;;1.70;;
1366;SDS011;16877;48.810;9.282;2023-07-29T10:24:11;2.70;;;1.50;;
1366;SDS011;16877;48.810;9.282;2023-07-29T10:26:56;2.30;;;1.47;;
1366;SDS011;16877;48.810;9.282;2023-07-29T10:29:28;2.50;;;1.80;;
1366;SDS011;16877;48.810;9.282;2023-07-29T10:31:57;3.70;;;1.57;;
1366;SDS011;16877;48.810;9.282;2023-07-29T10:34:27;2.40;;;1.40;;
1366;SDS011;16877;48.810;9.282;2023-07-29T10:37:10;2.47;;;1.20;;
1366;SDS011;16877;48.810;9.282;2023-07-29T10:39:51;2.53;;;1.30;;
1366;SDS011;16877;48.810;9.282;2023-07-29T10:42:22;2.53;;;1.10;;
1366;SDS011;16877;48.810;9.282;2023-07-29T10:44:51;2.40;;;1.23;;
1366;SDS011;16877;48.810;9.282;2023-07-29T10:47:21;2.20;;;1.10;;
1366;SDS011;16877;48.810;9.282;2023-07-29T10:49:50;2.27;;;1.30;;
1366;SDS011;16877;48.810;9.282;2023-07-29T10:52:37;2.70;;;1.20;;
1366;SDS011;16877;48.810;9.282;2023-07-29T10:55:22;2.03;;;0.80;;
1366;SDS011;16877;48.810;9.282;2023-07-29T10:57:54;2.20;;;1.13;;
1366;SDS011;16877;48.810;9.282;2023-07-29T11:00:35;2.43;;;1.33;;
1366;SDS011;16877;48.810;9.282;2023-07-29T11:03:05;2.30;;;1.00;;
1366;SDS011;16877;48.810;9.282;2023-07-29T11:05:48;2.10;;;1.07;;
1366;SDS011;16877;48.810;9.282;2023-07-29T11:08:20;2.50;;;1.30;;
1366;SDS011;16877;48.810;9.282;2023-07-29T11:11:13;2.27;;;1.00;;
1366;SDS011;16877;48.810;9.282;2023-07-29T11:13:43;2.70;;;1.40;;
1366;SDS011;16877;48.810;9.282;2023-07-29T11:16:11;2.10;;;1.20;;
1366;SDS011;16877;48.810;9.282;2023-07-29T11:18:43;2.07;;;1.27;;
1366;SDS011;16877;48.810;9.282;2023-07-29T11:21:12;2.07;;;1.10;;
1366;SDS011;16877;48.810;9.282;2023-07-29T11:23:41;2.13;;;1.13;;
1366;SDS011;16877;48.810;9.282;2023-07-29T11:26:10;4.00;;;1.53;;
1366;SDS011;16877;48.810;9.282;2023-07-29T11:28:38;2.10;;;1.00;;
1366;SDS011;16877;48.810;9.282;2023-07-29T11:31:10;5.10;;;1.60;;
1366;SDS011;16877;48.810;9.282;2023-07-29T11:33:38;2.67;;;1.73;;
1366;SDS011;16877;48.810;9.282;2023-07-29T11:36:17;2.57;;;1.47;;
1366;SDS011;16877;48.810;9.282;2023-07-29T11:38:44;2.27;;;1.33;;
1366;SDS011;16877;48.810;9.282;2023-07-29T11:41:12;2.00;;;1.00;;
1366;SDS011;16877;48.810;9.282;2023-07-29T11:43:39;2.27;;;1.50;;
1366;SDS011;16877;48.810;9.282;2023-07-29T11:46:07;2.30;;;1.43;;
1366;SDS011;16877;48.810;9.282;2023-07-29T11:48:36;2.67;;;1.53;;
1366;SDS011;16877;48.810;9.282;2023-07-29T11:51:11;2.40;;;1.40;;
1366;SDS011;16877;48.810;9.282;2023-07-29T11:53:39;2.20;;;1.20;;
1366;SDS011;16877;48.810;9.282;2023-07-29T11:56:08;4.70;;;1.37;;
1366;SDS011;16877;48.810;9.282;2023-07-29T11:58:35;2.57;;;1.40;;
1366;SDS011;16877;48.810;9.282;2023-07-29T12:01:03;2.33;;;1.10;;
1366;SDS011;16877;48.810;9.282;2023-07-29T12:03:36;5.40;;;1.50;;
1366;SDS011;16877;48.810;9.282;2023-07-29T12:06:03;2.30;;;1.40;;
1366;SDS011;16877;48.810;9.282;2023-07-29T12:08:31;2.20;;;1.30;;
1366;SDS011;16877;48.810;9.282;2023-07-29T12:11:13;2.20;;;1.20;;
1366;SDS011;16877;48.810;9.282;2023-07-29T12:13:41;2.87;;;1.73;;
1366;SDS011;16877;48.810;9.282;2023-07-29T12:16:15;3.10;;;1.37;;
1366;SDS011;16877;48.810;9.282;2023-07-29T12:18:45;2.67;;;1.70;;
1366;SDS011;16877;48.810;9.282;2023-07-29T12:21:13;2.17;;;1.13;;
1366;SDS011;16877;48.810;9.282;2023-07-29T12:23:41;2.30;;;1.47;;
1366;SDS011;16877;48.810;9.282;2023-07-29T12:26:09;3.23;;;1.50;;
1366;SDS011;16877;48.810;9.282;2023-07-29T12:28:37;2.47;;;1.53;;
1366;SDS011;16877;48.810;9.282;2023-07-29T12:31:07;4.20;;;1.80;;
1366;SDS011;16877;48.810;9.282;2023-07-29T12:33:35;3.43;;;1.87;;
1366;SDS011;16877;48.810;9.282;2023-07-29T12:36:06;2.90;;;1.90;;
1366;SDS011;16877;48.810;9.282;2023-07-29T12:38:35;2.47;;;1.40;;
1366;SDS011;16877;48.810;9.282;2023-07-29T12:41:03;2.70;;;1.70;;
1366;SDS011;16877;48.810;9.282;2023-07-29T12:43:35;2.80;;;1.30;;
1366;SDS011;16877;48.810;9.282;2023-07-29T12:46:04;2.50;;;1.60;;
1366;SDS011;16877;48.810;9.282;2023-07-29T12:48:32;2.20;;;1.00;;
1366;SDS011;16877;48.810;9.282;2023-07-29T12:51:00;2.80;;;1.73;;
1366;SDS011;16877;48.810;9.282;2023-07-29T12:53:29;3.70;;;2.10;;
1366;SDS011;16877;48.810;9.282;2023-07-29T12:55:56;2.43;;;1.50;;
1366;SDS011;16877;48.810;9.282;2023-07-29T12:58:23;2.63;;;1.70;;
1366;SDS011;16877;48.810;9.282;2023-07-29T13:00:51;2.50;;;1.50;;
1366;SDS011;16877;48.810;9.282;2023-07-29T13:03:19;2.63;;;1.70;;
1366;SDS011;16877;48.810;9.282;2023-07-29T13:05:46;2.83;;;1.77;;
1366;SDS011;16877;48.810;9.282;2023-07-29T13:08:14;2.90;;;2.00;;
1366;SDS011;16877;48.810;9.282;2023-07-29T13:10:43;2.40;;;1.47;;
1366;SDS011;16877;48.810;9.282;2023-07-29T13:13:12;4.67;;;2.03;;
1366;SDS011;16877;48.810;9.282;2023-07-29T13:15:40;2.30;;;1.40;;
1366;SDS011;16877;48.810;9.282;2023-07-29T13:18:08;2.77;;;1.67;;
1366;SDS011;16877;48.810;9.282;2023-07-29T13:20:36;3.20;;;1.60;;
1366;SDS011;16877;48.810;9.282;2023-07-29T13:23:03;4.90;;;2.10;;
1366;SDS011;16877;48.810;9.282;2023-07-29T13:25:31;3.23;;;1.60;;
1366;SDS011;16877;48.810;9.282;2023-07-29T13:28:04;2.67;;;1.53;;
1366;SDS011;16877;48.810;9.282;2023-07-29T13:30:32;2.40;;;1.37;;
1366;SDS011;16877;48.810;9.282;2023-07-29T13:33:00;2.60;;;1.40;;
1366;SDS011;16877;48.810;9.282;2023-07-29T13:35:28;3.13;;;1.90;;
1366;SDS011;16877;48.810;9.282;2023-07-29T13:38:01;2.50;;;1.60;;
1366;SDS011;16877;48.810;9.282;2023-07-29T13:40:29;2.93;;;1.70;;
1366;SDS011;16877;48.810;9.282;2023-07-29T13:42:56;2.60;;;1.50;;
1366;SDS011;16877;48.810;9.282;2023-07-29T13:45:26;3.07;;;1.90;;
1366;SDS011;16877;48.810;9.282;2023-07-29T13:47:53;2.57;;;1.70;;
1366;SDS011;16877;48.810;9.282;2023-07-29T13:50:22;2.60;;;1.50;;
1366;SDS011;16877;48.810;9.282;2023-07-29T13:52:51;2.90;;;1.70;;
1366;SDS011;16877;48.810;9.282;2023-07-29T13:55:19;2.57;;;1.77;;
1366;SDS011;16877;48.810;9.282;2023-07-29T13:57:47;2.60;;;1.57;;
1366;SDS011;16877;48.810;9.282;2023-07-29T14:00:27;2.30;;;1.40;;
1366;SDS011;16877;48.810;9.282;2023-07-29T14:02:55;2.93;;;1.60;;
1366;SDS011;16877;48.810;9.282;2023-07-29T14:05:22;2.60;;;1.57;;
1366;SDS011;16877;48.810;9.282;2023-07-29T14:07:50;3.47;;;2.07;;
1366;SDS011;16877;48.810;9.282;2023-07-29T14:10:18;2.80;;;1.50;;
1366;SDS011;16877;48.810;9.282;2023-07-29T14:12:48;2.80;;;1.77;;
1366;SDS011;16877;48.810;9.282;2023-07-29T14:15:15;2.80;;;1.70;;
1366;SDS011;16877;48.810;9.282;2023-07-29T14:17:45;2.93;;;1.90;;
1366;SDS011;16877;48.810;9.282;2023-07-29T14:20:12;3.00;;;1.80;;
1366;SDS011;16877;48.810;9.282;2023-07-29T14:22:50;3.00;;;1.93;;
1366;SDS011;16877;48.810;9.282;2023-07-29T14:25:18;3.03;;;1.90;;
1366;SDS011;16877;48.810;9.282;2023-07-29T14:27:45;2.50;;;1.50;;
1366;SDS011;16877;48.810;9.282;2023-07-29T14:30:13;2.70;;;1.67;;
1366;SDS011;16877;48.810;9.282;2023-07-29T14:32:41;2.77;;;1.30;;
1366;SDS011;16877;48.810;9.282;2023-07-29T14:35:11;4.43;;;1.90;;
1366;SDS011;16877;48.810;9.282;2023-07-29T14:37:38;3.63;;;1.97;;
1366;SDS011;16877;48.810;9.282;2023-07-29T14:40:16;2.40;;;1.37;;
1366;SDS011;16877;48.810;9.282;2023-07-29T14:42:44;2.30;;;1.37;;
1366;SDS011;16877;48.810;9.282;2023-07-29T14:45:11;2.43;;;1.47;;
1366;SDS011;16877;48.810;9.282;2023-07-29T14:47:38;3.00;;;1.90;;
1366;SDS011;16877;48.810;9.282;2023-07-29T14:50:06;2.33;;;1.53;;
1366;SDS011;16877;48.810;9.282;2023-07-29T14:52:35;2.97;;;1.80;;
1366;SDS011;16877;48.810;9.282;2023-07-29T14:55:03;2.77;;;1.70;;
1366;SDS011;16877;48.810;9.282;2023-07-29T14:57:31;2.87;;;2.00;;
1366;SDS011;16877;48.810;9.282;2023-07-29T14:59:59;3.00;;;2.00;;
1366;SDS011;16877;48.810;9.282;2023-07-29T15:02:26;3.00;;;2.07;;
1366;SDS011;16877;48.810;9.282;2023-07-29T15:04:58;3.00;;;1.90;;
1366;SDS011;16877;48.810;9.282;2023-07-29T15:07:26;2.50;;;1.50;;
1366;SDS011;16877;48.810;9.282;2023-07-29T15:09:55;2.70;;;1.80;;
1366;SDS011;16877;48.810;9.282;2023-07-29T15:12:22;2.70;;;1.60;;
1366;SDS011;16877;48.810;9.282;2023-07-29T15:14:50;2.30;;;1.53;;
1366;SDS011;16877;48.810;9.282;2023-07-29T15:17:17;2.63;;;1.80;;
1366;SDS011;16877;48.810;9.282;2023-07-29T15:19:55;2.90;;;1.90;;
1366;SDS011;16877;48.810;9.282;2023-07-29T15:22:23;3.00;;;1.87;;
1366;SDS011;16877;48.810;9.282;2023-07-29T15:24:51;3.00;;;1.70;;
1366;SDS011;16877;48.810;9.282;2023-07-29T15:27:20;2.90;;;1.90;;
1366;SDS011;16877;48.810;9.282;2023-07-29T15:29:47;3.30;;;1.60;;
1366;SDS011;16877;48.810;9.282;2023-07-29T15:32:15;3.63;;;2.10;;
1366;SDS011;16877;48.810;9.282;2023-07-29T15:34:42;3.03;;;2.13;;